createdAt,value
2022-11-08T00:02:25.401Z,13.30
2022-11-08T00:04:52.163Z,13.27
2022-11-08T00:07:37.831Z,13.24
2022-11-08T00:10:23.462Z,13.18
2022-11-08T00:13:08.322Z,13.14
2022-11-08T00:15:38.595Z,13.10
2022-11-08T00:18:07.010Z,13.09
2022-11-08T00:20:34.102Z,13.11
2022-11-08T00:23:00.974Z,13.13
2022-11-08T00:25:27.505Z,13.13
2022-11-08T00:27:54.177Z,13.14
2022-11-08T00:30:20.873Z,13.15
2022-11-08T00:32:47.494Z,13.17
2022-11-08T00:35:14.111Z,13.14
2022-11-08T00:37:40.662Z,13.07
2022-11-08T00:40:07.675Z,13.00
2022-11-08T00:42:34.337Z,12.95
2022-11-08T00:45:00.902Z,12.89
2022-11-08T00:47:27.533Z,12.85
2022-11-08T00:49:54.038Z,12.86
2022-11-08T00:52:20.548Z,12.81
2022-11-08T00:54:47.199Z,12.73
2022-11-08T00:57:13.703Z,12.65
2022-11-08T00:59:40.247Z,12.56
2022-11-08T01:02:06.833Z,12.48
2022-11-08T01:04:33.413Z,12.41
2022-11-08T01:07:00.342Z,12.36
2022-11-08T01:09:26.886Z,12.30
2022-11-08T01:11:53.566Z,12.24
2022-11-08T01:14:20.080Z,12.20
2022-11-08T01:16:46.585Z,12.16
2022-11-08T01:19:13.240Z,12.10
2022-11-08T01:21:39.802Z,12.07
2022-11-08T01:24:06.512Z,12.02
2022-11-08T01:26:33.342Z,11.99
2022-11-08T01:28:59.887Z,11.96
2022-11-08T01:31:32.871Z,11.91
2022-11-08T01:34:00.318Z,11.88
2022-11-08T01:36:28.692Z,11.87
2022-11-08T01:38:56.890Z,11.85
2022-11-08T01:41:25.770Z,11.83
2022-11-08T01:43:58.071Z,11.80
2022-11-08T01:46:36.697Z,11.78
2022-11-08T01:49:19.027Z,11.77
2022-11-08T01:52:04.804Z,11.75
2022-11-08T01:54:41.370Z,11.71
2022-11-08T01:57:11.360Z,11.70
2022-11-08T01:59:41.592Z,11.69
2022-11-08T02:02:11.161Z,11.68
2022-11-08T02:04:40.028Z,11.67
2022-11-08T02:07:07.833Z,11.65
2022-11-08T02:09:37.976Z,11.63
2022-11-08T02:12:06.473Z,11.61
2022-11-08T02:14:33.175Z,11.61
2022-11-08T02:17:00.171Z,11.60
2022-11-08T02:19:39.571Z,11.59
2022-11-08T02:22:21.341Z,11.60
2022-11-08T02:24:48.292Z,11.57
2022-11-08T02:27:15.273Z,11.56
2022-11-08T02:29:42.310Z,11.57
2022-11-08T02:32:11.083Z,11.55
2022-11-08T02:34:54.591Z,11.54
2022-11-08T02:37:23.130Z,11.52
2022-11-08T02:39:49.735Z,11.53
2022-11-08T02:42:18.720Z,11.55
2022-11-08T02:44:46.369Z,11.57
2022-11-08T02:47:13.186Z,11.55
2022-11-08T02:49:39.929Z,11.55
2022-11-08T02:52:06.778Z,11.56
2022-11-08T02:54:33.397Z,11.53
2022-11-08T02:56:59.974Z,11.52
2022-11-08T02:59:26.499Z,11.48
2022-11-08T03:01:53.105Z,11.47
2022-11-08T03:04:19.774Z,11.44
2022-11-08T03:06:46.311Z,11.42
2022-11-08T03:09:12.902Z,11.40
2022-11-08T03:11:39.423Z,11.40
2022-11-08T03:14:05.989Z,11.37
2022-11-08T03:16:32.545Z,11.33
2022-11-08T03:18:59.079Z,11.31
2022-11-08T03:21:26.378Z,11.29
2022-11-08T03:23:52.968Z,11.28
2022-11-08T03:26:19.714Z,11.27
2022-11-08T03:28:46.262Z,11.26
2022-11-08T03:31:12.789Z,11.23
2022-11-08T03:33:39.535Z,11.23
2022-11-08T03:36:06.162Z,11.21
2022-11-08T03:38:32.687Z,11.19
2022-11-08T03:40:59.247Z,11.19
2022-11-08T03:43:26.724Z,11.16
2022-11-08T03:45:53.311Z,11.15
2022-11-08T03:48:20.484Z,11.13
2022-11-08T03:50:47.355Z,11.12
2022-11-08T03:53:13.969Z,11.09
2022-11-08T03:55:41.410Z,11.07
2022-11-08T03:58:07.970Z,11.03
2022-11-08T04:00:34.485Z,11.01
2022-11-08T04:03:03.783Z,10.97
2022-11-08T04:05:32.326Z,10.94
2022-11-08T04:08:00.423Z,10.91
2022-11-08T04:10:27.412Z,10.86
2022-11-08T04:13:12.756Z,10.81
2022-11-08T04:15:39.573Z,10.77
2022-11-08T04:18:24.771Z,10.71
2022-11-08T04:21:10.078Z,10.66
2022-11-08T04:23:37.760Z,10.61
2022-11-08T04:26:11.928Z,10.55
2022-11-08T04:28:39.976Z,10.51
2022-11-08T04:31:18.955Z,10.47
2022-11-08T04:33:46.169Z,10.43
2022-11-08T04:36:15.390Z,10.39
2022-11-08T04:38:42.186Z,10.35
2022-11-08T04:41:13.465Z,10.31
2022-11-08T04:43:40.460Z,10.29
2022-11-08T04:46:11.968Z,10.26
2022-11-08T04:48:39.192Z,10.25
2022-11-08T04:51:10.329Z,10.24
2022-11-08T04:53:37.305Z,10.23
2022-11-08T04:56:07.209Z,10.19
2022-11-08T04:58:42.153Z,10.18
2022-11-08T05:01:11.441Z,10.16
2022-11-08T05:03:38.267Z,10.14
2022-11-08T05:06:12.055Z,10.12
2022-11-08T05:08:39.222Z,10.10
2022-11-08T05:11:11.783Z,10.07
2022-11-08T05:13:39.251Z,10.04
2022-11-08T05:16:08.849Z,10.00
2022-11-08T05:18:35.405Z,9.98
2022-11-08T05:21:21.064Z,9.95
2022-11-08T05:23:49.882Z,9.91
2022-11-08T05:26:18.259Z,9.87
2022-11-08T05:28:45.416Z,9.84
2022-11-08T05:31:12.177Z,9.80
2022-11-08T05:33:38.892Z,9.78
2022-11-08T05:36:08.598Z,9.75
2022-11-08T05:38:35.443Z,9.72
2022-11-08T05:41:08.125Z,9.69
2022-11-08T05:43:35.320Z,9.66
2022-11-08T05:46:02.209Z,9.64
2022-11-08T05:48:29.067Z,9.60
2022-11-08T05:50:55.873Z,9.58
2022-11-08T05:53:22.653Z,9.55
2022-11-08T05:55:49.777Z,9.51
2022-11-08T05:58:16.770Z,9.49
2022-11-08T06:00:43.265Z,9.46
2022-11-08T06:03:09.949Z,9.43
2022-11-08T06:05:37.071Z,9.41
2022-11-08T06:08:03.927Z,9.40
2022-11-08T06:10:30.465Z,9.38
2022-11-08T06:13:03.468Z,9.34
2022-11-08T06:15:30.008Z,9.35
2022-11-08T06:17:56.517Z,9.36
2022-11-08T06:20:23.219Z,9.38
2022-11-08T06:22:49.776Z,9.42
2022-11-08T06:25:16.490Z,9.53
2022-11-08T06:27:43.285Z,9.65
2022-11-08T06:30:10.407Z,9.74
2022-11-08T06:32:37.109Z,9.83
2022-11-08T06:35:04.477Z,9.93
2022-11-08T06:37:30.988Z,10.00
2022-11-08T06:39:58.878Z,10.04
2022-11-08T06:42:26.370Z,10.09
2022-11-08T06:44:52.987Z,10.12
2022-11-08T06:47:19.556Z,10.12
2022-11-08T06:49:46.145Z,10.11
2022-11-08T06:52:12.719Z,10.10
2022-11-08T06:54:39.218Z,10.09
2022-11-08T06:57:05.802Z,10.06
2022-11-08T06:59:32.344Z,10.06
2022-11-08T07:01:58.988Z,10.06
2022-11-08T07:04:25.654Z,10.06
2022-11-08T07:06:52.223Z,10.07
2022-11-08T07:09:18.858Z,10.09
2022-11-08T07:11:45.511Z,10.11
2022-11-08T07:14:12.083Z,10.13
2022-11-08T07:16:38.882Z,10.15
2022-11-08T07:19:05.571Z,10.16
2022-11-08T07:21:32.083Z,10.18
2022-11-08T07:23:58.697Z,10.19
2022-11-08T07:26:25.309Z,10.22
2022-11-08T07:28:52.158Z,10.27
2022-11-08T07:31:18.840Z,10.30
2022-11-08T07:33:45.431Z,10.35
2022-11-08T07:36:11.987Z,10.39
2022-11-08T07:38:38.604Z,10.46
2022-11-08T07:41:05.486Z,10.50
2022-11-08T07:43:32.063Z,10.54
2022-11-08T07:46:08.818Z,10.60
2022-11-08T07:48:35.851Z,10.66
2022-11-08T07:51:02.944Z,10.72
2022-11-08T07:53:29.846Z,10.80
2022-11-08T07:55:58.259Z,10.88
2022-11-08T07:58:25.037Z,10.94
2022-11-08T08:00:51.570Z,10.99
2022-11-08T08:03:19.025Z,11.03
2022-11-08T08:05:52.381Z,11.08
2022-11-08T08:08:21.144Z,11.14
2022-11-08T08:10:48.542Z,11.16
2022-11-08T08:13:15.722Z,11.21
2022-11-08T08:15:42.616Z,11.24
2022-11-08T08:18:11.083Z,11.26
2022-11-08T08:20:38.959Z,11.29
2022-11-08T08:23:06.739Z,11.32
2022-11-08T08:25:33.748Z,11.34
2022-11-08T08:28:03.691Z,11.36
2022-11-08T08:30:31.735Z,11.39
2022-11-08T08:35:58.054Z,11.45
2022-11-08T08:38:24.635Z,11.52
2022-11-08T08:40:51.753Z,11.57
2022-11-08T08:43:19.443Z,11.64
2022-11-08T08:45:46.353Z,11.69
2022-11-08T08:48:13.022Z,11.78
2022-11-08T08:50:39.928Z,11.87
2022-11-08T08:53:07.402Z,11.95
2022-11-08T08:55:36.845Z,12.03
2022-11-08T08:58:03.667Z,12.12
2022-11-08T09:03:17.330Z,12.36
2022-11-08T09:05:46.627Z,12.48
2022-11-08T09:08:15.800Z,12.59
2022-11-08T09:10:43.206Z,12.68
2022-11-08T09:13:10.493Z,12.76
2022-11-08T09:15:39.398Z,12.85
2022-11-08T09:18:06.645Z,12.94
2022-11-08T09:20:33.260Z,13.01
2022-11-08T09:23:03.472Z,13.08
2022-11-08T09:25:30.948Z,13.17
2022-11-08T09:27:57.619Z,13.26
2022-11-08T09:30:24.201Z,13.36
2022-11-08T09:33:00.751Z,13.46
2022-11-08T09:35:27.767Z,13.56
2022-11-08T09:37:54.811Z,13.64
2022-11-08T09:40:37.490Z,13.74
2022-11-08T09:43:29.211Z,13.82
2022-11-08T09:45:57.381Z,13.88
2022-11-08T09:48:35.639Z,13.93
2022-11-08T09:51:10.139Z,13.95
2022-11-08T09:53:49.403Z,13.99
2022-11-08T09:56:23.510Z,14.01
2022-11-08T09:58:54.597Z,14.05
2022-11-08T10:01:26.942Z,14.09
2022-11-08T10:03:57.038Z,14.11
2022-11-08T10:06:40.463Z,14.12
2022-11-08T10:09:37.320Z,14.13
2022-11-08T10:12:43.828Z,14.15
2022-11-08T10:15:38.435Z,14.17
2022-11-08T10:18:17.227Z,14.21
2022-11-08T10:20:59.769Z,14.24
2022-11-08T10:23:36.826Z,14.26
2022-11-08T10:26:13.394Z,14.28
2022-11-08T10:29:07.526Z,14.30
2022-11-08T10:31:37.986Z,14.33
2022-11-08T10:34:14.279Z,14.36
2022-11-08T10:36:47.057Z,14.36
2022-11-08T10:39:22.560Z,14.37
2022-11-08T10:42:36.970Z,14.38
2022-11-08T10:45:03.684Z,14.39
2022-11-08T10:47:32.735Z,14.38
2022-11-08T10:50:03.626Z,14.40
2022-11-08T10:52:38.282Z,14.45
2022-11-08T10:55:09.730Z,14.51
2022-11-08T10:57:42.172Z,14.55
2022-11-08T11:00:25.002Z,14.61
2022-11-08T11:02:54.469Z,14.67
2022-11-08T11:05:44.038Z,14.75
2022-11-08T11:08:10.540Z,14.82
2022-11-08T11:10:41.346Z,14.88
2022-11-08T11:13:12.845Z,14.96
2022-11-08T11:15:47.240Z,15.04
2022-11-08T11:18:37.097Z,15.13
2022-11-08T11:21:10.888Z,15.21
2022-11-08T11:23:40.083Z,15.28
2022-11-08T11:26:08.971Z,15.36
2022-11-08T11:28:38.456Z,15.43
2022-11-08T11:31:16.944Z,15.54
2022-11-08T11:33:46.156Z,15.63
2022-11-08T11:36:22.296Z,15.70
2022-11-08T11:38:52.674Z,15.77
2022-11-08T11:41:26.355Z,15.86
2022-11-08T11:44:15.292Z,15.95
2022-11-08T11:46:44.536Z,16.04
2022-11-08T11:49:16.792Z,16.11
2022-11-08T11:51:43.727Z,16.20
2022-11-08T11:54:14.675Z,16.28
2022-11-08T11:57:00.088Z,16.37
2022-11-08T11:59:40.105Z,16.44
2022-11-08T12:02:48.768Z,16.53
2022-11-08T12:05:46.353Z,16.69
2022-11-08T12:08:37.417Z,16.80
2022-11-08T12:11:16.165Z,16.90
2022-11-08T12:14:10.321Z,16.97
2022-11-08T12:16:58.563Z,17.04
2022-11-08T12:19:38.875Z,17.05
2022-11-08T12:22:29.956Z,17.10
2022-11-08T12:25:18.803Z,17.12
2022-11-08T12:27:58.216Z,17.14
2022-11-08T12:30:49.809Z,17.17
2022-11-08T12:33:29.296Z,17.18
2022-11-08T12:36:14.627Z,17.18
2022-11-08T12:39:00.499Z,17.17
2022-11-08T12:41:44.764Z,17.18
2022-11-08T12:44:48.836Z,17.15
2022-11-08T12:47:26.301Z,17.15
2022-11-08T12:50:14.629Z,17.16
2022-11-08T12:52:46.913Z,17.19
2022-11-08T12:55:28.805Z,17.20
2022-11-08T12:57:58.762Z,17.24
2022-11-08T13:00:27.456Z,17.30
2022-11-08T13:02:59.943Z,17.38
2022-11-08T13:05:34.995Z,17.43
2022-11-08T13:08:10.864Z,17.48
2022-11-08T13:11:06.854Z,17.52
2022-11-08T13:13:54.972Z,17.49
2022-11-08T13:16:27.097Z,17.51
2022-11-08T13:18:58.833Z,17.50
2022-11-08T13:21:28.461Z,17.49
2022-11-08T13:24:42.721Z,17.50
2022-11-08T13:27:24.542Z,17.50
2022-11-08T13:29:52.441Z,17.50
2022-11-08T13:32:39.871Z,17.51
2022-11-08T13:35:41.086Z,17.51
2022-11-08T13:38:34.845Z,17.50
2022-11-08T13:41:16.754Z,17.48
2022-11-08T13:43:43.847Z,17.47
2022-11-08T13:46:30.750Z,17.43
2022-11-08T13:49:03.540Z,17.42
2022-11-08T13:51:40.602Z,17.42
2022-11-08T13:54:22.367Z,17.39
2022-11-08T13:56:50.360Z,17.39
2022-11-08T13:59:32.387Z,17.31
2022-11-08T14:02:00.869Z,17.26
2022-11-08T14:04:30.912Z,17.19
2022-11-08T14:07:22.228Z,17.13
2022-11-08T14:10:01.260Z,17.07
2022-11-08T14:12:36.899Z,17.03
2022-11-08T14:15:15.654Z,17.00
2022-11-08T14:18:03.985Z,16.98
2022-11-08T14:20:36.915Z,16.97
2022-11-08T14:23:23.891Z,16.92
2022-11-08T14:25:58.530Z,16.87
2022-11-08T14:28:34.645Z,16.80
2022-11-08T14:31:03.882Z,16.76
2022-11-08T14:33:32.042Z,16.71
2022-11-08T14:36:07.448Z,16.68
2022-11-08T14:38:47.864Z,16.63
2022-11-08T14:41:19.568Z,16.60
2022-11-08T14:43:47.618Z,16.57
2022-11-08T14:46:34.394Z,16.52
2022-11-08T14:49:13.259Z,16.46
2022-11-08T14:51:40.850Z,16.40
2022-11-08T14:54:38.049Z,16.33
2022-11-08T14:57:04.604Z,16.28
2022-11-08T14:59:31.305Z,16.22
2022-11-08T15:01:58.603Z,16.18
2022-11-08T15:04:26.088Z,16.12
2022-11-08T15:06:54.966Z,16.06
2022-11-08T15:09:28.430Z,16.01
2022-11-08T15:12:01.385Z,15.97
2022-11-08T15:14:32.465Z,15.96
2022-11-08T15:17:03.085Z,15.93
2022-11-08T15:19:42.634Z,15.91
2022-11-08T15:22:26.269Z,15.89
2022-11-08T15:25:14.367Z,15.85
2022-11-08T15:27:58.449Z,15.84
2022-11-08T15:30:27.992Z,15.82
2022-11-08T15:32:54.542Z,15.80
2022-11-08T15:35:33.839Z,15.77
2022-11-08T15:38:23.655Z,15.75
2022-11-08T15:40:53.392Z,15.71
2022-11-08T15:43:35.801Z,15.69
2022-11-08T15:46:05.190Z,15.65
2022-11-08T15:48:33.337Z,15.64
2022-11-08T15:50:59.939Z,15.61
2022-11-08T15:53:27.372Z,15.58
2022-11-08T15:55:58.837Z,15.54
2022-11-08T15:58:36.374Z,15.52
2022-11-08T16:01:04.425Z,15.50
2022-11-08T16:03:33.904Z,15.46
2022-11-08T16:06:00.951Z,15.44
2022-11-08T16:08:28.114Z,15.42
2022-11-08T16:10:59.475Z,15.40
2022-11-08T16:13:38.894Z,15.35
2022-11-08T16:16:12.581Z,15.33
2022-11-08T16:18:40.198Z,15.31
2022-11-08T16:21:09.413Z,15.31
2022-11-08T16:23:35.955Z,15.30
2022-11-08T16:26:04.858Z,15.27
2022-11-08T16:28:37.866Z,15.26
2022-11-08T16:31:07.163Z,15.25
2022-11-08T16:33:35.701Z,15.22
2022-11-08T16:36:20.182Z,15.20
2022-11-08T16:38:50.740Z,15.18
2022-11-08T16:41:17.809Z,15.17
2022-11-08T16:43:45.015Z,15.17
2022-11-08T16:46:11.802Z,15.15
2022-11-08T16:48:40.272Z,15.14
2022-11-08T16:51:12.745Z,15.14
2022-11-08T16:53:39.274Z,15.17
2022-11-08T16:56:05.965Z,15.20
2022-11-08T16:58:32.540Z,15.23
2022-11-08T17:00:59.254Z,15.24
2022-11-08T17:03:29.509Z,15.28
2022-11-08T17:05:56.919Z,15.29
2022-11-08T17:08:25.035Z,15.34
2022-11-08T17:10:52.412Z,15.38
2022-11-08T17:13:20.659Z,15.41
2022-11-08T17:15:49.123Z,15.42
2022-11-08T17:18:19.055Z,15.44
2022-11-08T17:20:45.888Z,15.46
2022-11-08T17:23:13.268Z,15.48
2022-11-08T17:25:42.841Z,15.49
2022-11-08T17:28:11.267Z,15.52
2022-11-08T17:30:43.940Z,15.54
2022-11-08T17:33:12.083Z,15.56
2022-11-08T17:35:42.821Z,15.58
2022-11-08T17:38:11.460Z,15.58
2022-11-08T17:40:38.121Z,15.56
2022-11-08T17:43:04.657Z,15.53
2022-11-08T17:45:31.313Z,15.52
2022-11-08T17:47:57.809Z,15.51
2022-11-08T17:50:24.483Z,15.50
2022-11-08T17:52:54.597Z,15.49
2022-11-08T17:55:21.217Z,15.50
2022-11-08T17:57:48.091Z,15.48
2022-11-08T18:00:15.330Z,15.46
2022-11-08T18:02:41.783Z,15.45
2022-11-08T18:05:08.523Z,15.46
2022-11-08T18:07:35.478Z,15.47
2022-11-08T18:10:02.827Z,15.48
2022-11-08T18:12:31.270Z,15.50
2022-11-08T18:14:57.800Z,15.48
2022-11-08T18:17:24.426Z,15.49
2022-11-08T18:19:51.273Z,15.52
2022-11-08T18:22:18.061Z,15.52
2022-11-08T18:24:47.444Z,15.51
2022-11-08T18:27:16.576Z,15.52
2022-11-08T18:29:43.100Z,15.53
2022-11-08T18:32:09.731Z,15.52
2022-11-08T18:34:36.279Z,15.51
2022-11-08T18:37:02.899Z,15.51
2022-11-08T18:39:29.573Z,15.49
2022-11-08T18:41:56.093Z,15.47
2022-11-08T18:44:22.746Z,15.45
2022-11-08T18:46:49.449Z,15.42
2022-11-08T18:49:16.418Z,15.42
2022-11-08T18:51:43.108Z,15.40
2022-11-08T18:54:09.863Z,15.39
2022-11-08T18:56:36.612Z,15.40
2022-11-08T18:59:03.444Z,15.42
2022-11-08T19:01:30.567Z,15.43
2022-11-08T19:03:57.109Z,15.43
2022-11-08T19:06:23.749Z,15.42
2022-11-08T19:08:50.554Z,15.41
2022-11-08T19:11:21.322Z,15.41
2022-11-08T19:13:48.362Z,15.41
2022-11-08T19:16:17.925Z,15.41
2022-11-08T19:18:45.723Z,15.42
2022-11-08T19:21:20.240Z,15.44
2022-11-08T19:23:47.586Z,15.45
2022-11-08T19:26:22.273Z,15.46
2022-11-08T19:28:50.222Z,15.46
2022-11-08T19:31:19.167Z,15.46
2022-11-08T19:33:47.367Z,15.47
2022-11-08T19:36:18.185Z,15.47
2022-11-08T19:38:45.426Z,15.48
2022-11-08T19:41:15.088Z,15.48
2022-11-08T19:43:43.189Z,15.50
2022-11-08T19:46:22.753Z,15.51
2022-11-08T19:48:50.831Z,15.50
2022-11-08T19:51:20.256Z,15.49
2022-11-08T19:53:47.030Z,15.51
2022-11-08T19:56:19.041Z,15.52
2022-11-08T19:58:46.147Z,15.52
2022-11-08T20:01:20.985Z,15.52
2022-11-08T20:03:48.607Z,15.56
2022-11-08T20:06:18.566Z,15.57
2022-11-08T20:08:53.643Z,15.56
2022-11-08T20:11:25.931Z,15.57
2022-11-08T20:13:52.535Z,15.56
2022-11-08T20:16:21.679Z,15.58
2022-11-08T20:18:49.933Z,15.57
2022-11-08T20:21:17.946Z,15.56
2022-11-08T20:23:45.235Z,15.58
2022-11-08T20:26:18.362Z,15.58
2022-11-08T20:28:55.984Z,15.58
2022-11-08T20:31:23.954Z,15.58
2022-11-08T20:33:53.123Z,15.56
2022-11-08T20:36:21.772Z,15.56
2022-11-08T20:38:49.006Z,15.55
2022-11-08T20:41:16.686Z,15.54
2022-11-08T20:43:45.207Z,15.52
2022-11-08T20:46:17.067Z,15.50
2022-11-08T20:48:44.319Z,15.49
2022-11-08T20:51:16.618Z,15.48
2022-11-08T20:53:43.870Z,15.48
2022-11-08T20:56:16.069Z,15.47
2022-11-08T20:58:44.303Z,15.46
2022-11-08T21:01:13.536Z,15.47
2022-11-08T21:03:40.973Z,15.46
2022-11-08T21:06:09.125Z,15.47
2022-11-08T21:11:26.887Z,15.47
2022-11-08T21:13:53.684Z,15.47
2022-11-08T21:16:29.755Z,15.45
2022-11-08T21:18:57.465Z,15.45
2022-11-08T21:21:24.627Z,15.44
2022-11-08T21:23:52.044Z,15.44
2022-11-08T21:26:22.119Z,15.43
2022-11-08T21:28:48.881Z,15.42
2022-11-08T21:31:16.133Z,15.41
2022-11-08T21:33:42.897Z,15.39
2022-11-08T21:36:10.399Z,15.40
2022-11-08T21:38:38.141Z,15.38
2022-11-08T21:41:07.229Z,15.38
2022-11-08T21:43:39.074Z,15.35
2022-11-08T21:46:21.283Z,15.36
2022-11-08T21:48:53.308Z,15.36
2022-11-08T21:51:19.837Z,15.36
2022-11-08T21:53:54.020Z,15.36
2022-11-08T21:56:22.972Z,15.36
2022-11-08T21:58:49.844Z,15.35
2022-11-08T22:01:16.846Z,15.34
2022-11-08T22:03:43.984Z,15.35
2022-11-08T22:06:10.623Z,15.34
2022-11-08T22:08:37.326Z,15.33
2022-11-08T22:11:04.336Z,15.34
2022-11-08T22:13:30.987Z,15.34
2022-11-08T22:15:57.907Z,15.32
2022-11-08T22:18:36.710Z,15.31
2022-11-08T22:21:28.476Z,15.31
2022-11-08T22:23:55.131Z,15.31
2022-11-08T22:26:21.644Z,15.30
2022-11-08T22:28:48.157Z,15.27
2022-11-08T22:31:14.741Z,15.28
2022-11-08T22:33:41.338Z,15.28
2022-11-08T22:36:08.216Z,15.27
2022-11-08T22:38:34.807Z,15.24
2022-11-08T22:41:01.594Z,15.23
2022-11-08T22:43:28.081Z,15.22
2022-11-08T22:45:54.915Z,15.20
2022-11-08T22:48:22.687Z,15.18
2022-11-08T22:50:49.402Z,15.19
2022-11-08T22:53:16.100Z,15.21
2022-11-08T22:55:45.025Z,15.26
2022-11-08T22:58:12.494Z,15.30
2022-11-08T23:00:39.048Z,15.31
2022-11-08T23:03:05.574Z,15.30
2022-11-08T23:05:32.348Z,15.30
2022-11-08T23:07:58.854Z,15.31
2022-11-08T23:10:25.524Z,15.33
2022-11-08T23:13:10.788Z,15.32
2022-11-08T23:15:56.516Z,15.30
2022-11-08T23:18:24.359Z,15.30
2022-11-08T23:21:13.547Z,15.30
2022-11-08T23:23:58.764Z,15.31
2022-11-08T23:26:44.196Z,15.35
2022-11-08T23:29:29.959Z,15.39
2022-11-08T23:31:56.852Z,15.42
2022-11-08T23:34:23.432Z,15.44
2022-11-08T23:36:50.239Z,15.48
2022-11-08T23:39:16.744Z,15.49
2022-11-08T23:42:02.045Z,15.53
2022-11-08T23:44:28.752Z,15.54
2022-11-08T23:46:59.931Z,15.55
2022-11-08T23:49:26.864Z,15.56
2022-11-08T23:51:54.087Z,15.56
2022-11-08T23:54:21.454Z,15.58
2022-11-08T23:56:48.822Z,15.57
2022-11-08T23:59:16.146Z,15.56
